sensor_id;sensor_type;location;lat;lon;timestamp;P1;durP1;ratioP1;P2;durP2;ratioP2
14306;SDS011;7237;49.500;11.400;2024-02-15T00:02:06;7.80;;;5.03;;
14306;SDS011;7237;49.500;11.400;2024-02-15T00:04:33;7.00;;;5.30;;
14306;SDS011;7237;49.500;11.400;2024-02-15T00:07:00;6.80;;;5.23;;
14306;SDS011;7237;49.500;11.400;2024-02-15T00:09:27;10.97;;;5.70;;
14306;SDS011;7237;49.500;11.400;2024-02-15T00:11:56;11.27;;;5.50;;
14306;SDS011;7237;49.500;11.400;2024-02-15T00:14:24;7.07;;;5.73;;
14306;SDS011;7237;49.500;11.400;2024-02-15T00:16:52;4.93;;;4.43;;
14306;SDS011;7237;49.500;11.400;2024-02-15T00:19:19;5.93;;;4.70;;
14306;SDS011;7237;49.500;11.400;2024-02-15T00:21:47;20.27;;;6.50;;
14306;SDS011;7237;49.500;11.400;2024-02-15T00:24:14;24.67;;;7.30;;
14306;SDS011;7237;49.500;11.400;2024-02-15T00:26:41;8.43;;;6.20;;
14306;SDS011;7237;49.500;11.400;2024-02-15T00:29:10;11.70;;;6.73;;
14306;SDS011;7237;49.500;11.400;2024-02-15T00:31:37;14.67;;;6.83;;
14306;SDS011;7237;49.500;11.400;2024-02-15T00:34:04;7.03;;;6.30;;
14306;SDS011;7237;49.500;11.400;2024-02-15T00:36:31;8.67;;;7.00;;
14306;SDS011;7237;49.500;11.400;2024-02-15T00:38:58;10.67;;;6.83;;
14306;SDS011;7237;49.500;11.400;2024-02-15T00:41:25;12.77;;;6.77;;
14306;SDS011;7237;49.500;11.400;2024-02-15T00:43:53;7.47;;;6.70;;
14306;SDS011;7237;49.500;11.400;2024-02-15T00:46:21;7.73;;;6.43;;
14306;SDS011;7237;49.500;11.400;2024-02-15T00:48:48;6.83;;;5.80;;
14306;SDS011;7237;49.500;11.400;2024-02-15T00:51:15;7.47;;;6.20;;
14306;SDS011;7237;49.500;11.400;2024-02-15T00:53:42;8.43;;;5.97;;
14306;SDS011;7237;49.500;11.400;2024-02-15T00:56:09;6.77;;;6.03;;
14306;SDS011;7237;49.500;11.400;2024-02-15T00:58:36;6.47;;;5.17;;
14306;SDS011;7237;49.500;11.400;2024-02-15T01:01:04;34.07;;;7.97;;
14306;SDS011;7237;49.500;11.400;2024-02-15T01:03:32;7.13;;;5.80;;
14306;SDS011;7237;49.500;11.400;2024-02-15T01:05:59;6.43;;;5.70;;
14306;SDS011;7237;49.500;11.400;2024-02-15T01:08:27;8.33;;;6.10;;
14306;SDS011;7237;49.500;11.400;2024-02-15T01:10:54;6.10;;;5.47;;
14306;SDS011;7237;49.500;11.400;2024-02-15T01:13:21;8.03;;;6.47;;
14306;SDS011;7237;49.500;11.400;2024-02-15T01:15:49;6.57;;;5.83;;
14306;SDS011;7237;49.500;11.400;2024-02-15T01:18:17;6.70;;;5.90;;
14306;SDS011;7237;49.500;11.400;2024-02-15T01:20:45;7.40;;;5.73;;
14306;SDS011;7237;49.500;11.400;2024-02-15T01:23:13;9.83;;;5.60;;
14306;SDS011;7237;49.500;11.400;2024-02-15T01:25:40;6.03;;;5.50;;
14306;SDS011;7237;49.500;11.400;2024-02-15T01:28:07;6.13;;;5.37;;
14306;SDS011;7237;49.500;11.400;2024-02-15T01:30:34;8.93;;;5.40;;
14306;SDS011;7237;49.500;11.400;2024-02-15T01:33:01;6.70;;;5.77;;
14306;SDS011;7237;49.500;11.400;2024-02-15T01:35:28;5.83;;;5.23;;
14306;SDS011;7237;49.500;11.400;2024-02-15T01:37:56;5.60;;;5.10;;
14306;SDS011;7237;49.500;11.400;2024-02-15T01:40:23;7.27;;;5.13;;
14306;SDS011;7237;49.500;11.400;2024-02-15T01:42:50;6.17;;;5.33;;
14306;SDS011;7237;49.500;11.400;2024-02-15T01:45:17;4.97;;;4.53;;
14306;SDS011;7237;49.500;11.400;2024-02-15T01:47:45;4.60;;;4.20;;
14306;SDS011;7237;49.500;11.400;2024-02-15T01:50:12;5.63;;;4.27;;
14306;SDS011;7237;49.500;11.400;2024-02-15T01:52:40;4.77;;;4.33;;
14306;SDS011;7237;49.500;11.400;2024-02-15T01:55:10;5.67;;;4.70;;
14306;SDS011;7237;49.500;11.400;2024-02-15T01:57:37;4.93;;;4.40;;
14306;SDS011;7237;49.500;11.400;2024-02-15T02:00:04;4.97;;;4.43;;
14306;SDS011;7237;49.500;11.400;2024-02-15T02:02:33;4.80;;;4.30;;
14306;SDS011;7237;49.500;11.400;2024-02-15T02:05:01;4.67;;;4.00;;
14306;SDS011;7237;49.500;11.400;2024-02-15T02:07:28;6.47;;;4.70;;
14306;SDS011;7237;49.500;11.400;2024-02-15T02:09:55;4.23;;;3.87;;
14306;SDS011;7237;49.500;11.400;2024-02-15T02:12:24;7.43;;;4.53;;
14306;SDS011;7237;49.500;11.400;2024-02-15T02:14:52;63.10;;;7.63;;
14306;SDS011;7237;49.500;11.400;2024-02-15T02:17:19;6.47;;;4.47;;
14306;SDS011;7237;49.500;11.400;2024-02-15T02:19:47;4.17;;;3.77;;
14306;SDS011;7237;49.500;11.400;2024-02-15T02:22:15;5.20;;;4.27;;
14306;SDS011;7237;49.500;11.400;2024-02-15T02:27:17;4.87;;;3.77;;
14306;SDS011;7237;49.500;11.400;2024-02-15T02:29:45;4.30;;;3.90;;
14306;SDS011;7237;49.500;11.400;2024-02-15T02:32:12;4.63;;;3.83;;
14306;SDS011;7237;49.500;11.400;2024-02-15T02:34:39;7.37;;;4.67;;
14306;SDS011;7237;49.500;11.400;2024-02-15T02:37:06;5.90;;;3.97;;
14306;SDS011;7237;49.500;11.400;2024-02-15T02:39:34;5.37;;;4.90;;
14306;SDS011;7237;49.500;11.400;2024-02-15T02:42:01;4.33;;;3.93;;
14306;SDS011;7237;49.500;11.400;2024-02-15T02:44:30;6.37;;;4.23;;
14306;SDS011;7237;49.500;11.400;2024-02-15T02:46:57;4.47;;;4.07;;
14306;SDS011;7237;49.500;11.400;2024-02-15T02:49:24;5.87;;;4.27;;
14306;SDS011;7237;49.500;11.400;2024-02-15T02:51:51;8.53;;;4.47;;
14306;SDS011;7237;49.500;11.400;2024-02-15T02:54:18;4.87;;;4.03;;
14306;SDS011;7237;49.500;11.400;2024-02-15T02:56:46;4.43;;;4.03;;
14306;SDS011;7237;49.500;11.400;2024-02-15T02:59:13;4.20;;;3.83;;
14306;SDS011;7237;49.500;11.400;2024-02-15T03:01:42;5.53;;;4.10;;
14306;SDS011;7237;49.500;11.400;2024-02-15T03:04:08;5.57;;;4.57;;
14306;SDS011;7237;49.500;11.400;2024-02-15T03:06:37;7.13;;;4.77;;
14306;SDS011;7237;49.500;11.400;2024-02-15T03:09:07;6.10;;;5.50;;
14306;SDS011;7237;49.500;11.400;2024-02-15T03:11:35;8.87;;;5.67;;
14306;SDS011;7237;49.500;11.400;2024-02-15T03:14:02;39.97;;;7.87;;
14306;SDS011;7237;49.500;11.400;2024-02-15T03:16:30;11.07;;;6.00;;
14306;SDS011;7237;49.500;11.400;2024-02-15T03:18:58;8.30;;;5.10;;
14306;SDS011;7237;49.500;11.400;2024-02-15T03:21:27;6.47;;;5.10;;
14306;SDS011;7237;49.500;11.400;2024-02-15T03:23:54;5.27;;;4.60;;
14306;SDS011;7237;49.500;11.400;2024-02-15T03:26:28;6.83;;;4.97;;
14306;SDS011;7237;49.500;11.400;2024-02-15T03:29:02;6.90;;;5.07;;
14306;SDS011;7237;49.500;11.400;2024-02-15T03:31:29;6.03;;;5.23;;
14306;SDS011;7237;49.500;11.400;2024-02-15T03:33:56;10.80;;;5.33;;
14306;SDS011;7237;49.500;11.400;2024-02-15T03:36:25;4.80;;;4.30;;
14306;SDS011;7237;49.500;11.400;2024-02-15T03:38:54;5.63;;;4.13;;
14306;SDS011;7237;49.500;11.400;2024-02-15T03:41:21;5.07;;;4.50;;
14306;SDS011;7237;49.500;11.400;2024-02-15T03:43:48;4.50;;;4.00;;
14306;SDS011;7237;49.500;11.400;2024-02-15T03:46:15;3.60;;;3.30;;
14306;SDS011;7237;49.500;11.400;2024-02-15T03:48:43;5.00;;;4.40;;
14306;SDS011;7237;49.500;11.400;2024-02-15T03:51:10;4.53;;;4.00;;
14306;SDS011;7237;49.500;11.400;2024-02-15T03:53:41;5.97;;;4.00;;
14306;SDS011;7237;49.500;11.400;2024-02-15T03:56:08;4.60;;;3.90;;
14306;SDS011;7237;49.500;11.400;2024-02-15T03:58:35;4.20;;;3.80;;
14306;SDS011;7237;49.500;11.400;2024-02-15T04:01:02;3.80;;;3.50;;
14306;SDS011;7237;49.500;11.400;2024-02-15T04:03:31;4.13;;;3.73;;
14306;SDS011;7237;49.500;11.400;2024-02-15T04:05:59;4.20;;;3.80;;
14306;SDS011;7237;49.500;11.400;2024-02-15T04:08:26;5.83;;;3.67;;
14306;SDS011;7237;49.500;11.400;2024-02-15T04:10:54;3.97;;;3.60;;
14306;SDS011;7237;49.500;11.400;2024-02-15T04:13:22;3.70;;;3.23;;
14306;SDS011;7237;49.500;11.400;2024-02-15T04:15:50;6.80;;;3.67;;
14306;SDS011;7237;49.500;11.400;2024-02-15T04:18:18;3.47;;;3.17;;
14306;SDS011;7237;49.500;11.400;2024-02-15T04:20:45;2.97;;;2.67;;
14306;SDS011;7237;49.500;11.400;2024-02-15T04:23:13;4.43;;;3.10;;
14306;SDS011;7237;49.500;11.400;2024-02-15T04:25:40;2.97;;;2.77;;
14306;SDS011;7237;49.500;11.400;2024-02-15T04:28:10;3.93;;;2.90;;
14306;SDS011;7237;49.500;11.400;2024-02-15T04:30:37;3.53;;;3.17;;
14306;SDS011;7237;49.500;11.400;2024-02-15T04:33:05;3.97;;;2.70;;
14306;SDS011;7237;49.500;11.400;2024-02-15T04:35:33;6.40;;;2.80;;
14306;SDS011;7237;49.500;11.400;2024-02-15T04:38:00;3.40;;;2.67;;
14306;SDS011;7237;49.500;11.400;2024-02-15T04:40:28;3.93;;;2.60;;
14306;SDS011;7237;49.500;11.400;2024-02-15T04:42:55;4.43;;;2.80;;
14306;SDS011;7237;49.500;11.400;2024-02-15T04:45:24;4.20;;;3.03;;
14306;SDS011;7237;49.500;11.400;2024-02-15T04:47:52;4.50;;;3.13;;
14306;SDS011;7237;49.500;11.400;2024-02-15T04:50:22;6.13;;;2.37;;
14306;SDS011;7237;49.500;11.400;2024-02-15T04:52:50;2.77;;;2.40;;
14306;SDS011;7237;49.500;11.400;2024-02-15T04:55:18;3.37;;;3.03;;
14306;SDS011;7237;49.500;11.400;2024-02-15T04:57:47;2.83;;;2.40;;
14306;SDS011;7237;49.500;11.400;2024-02-15T05:00:19;3.70;;;2.50;;
14306;SDS011;7237;49.500;11.400;2024-02-15T05:02:49;3.33;;;2.70;;
14306;SDS011;7237;49.500;11.400;2024-02-15T05:05:16;4.80;;;2.93;;
14306;SDS011;7237;49.500;11.400;2024-02-15T05:07:43;3.40;;;2.80;;
14306;SDS011;7237;49.500;11.400;2024-02-15T05:10:10;3.07;;;2.67;;
14306;SDS011;7237;49.500;11.400;2024-02-15T05:12:37;4.27;;;2.40;;
14306;SDS011;7237;49.500;11.400;2024-02-15T05:15:05;3.17;;;2.37;;
14306;SDS011;7237;49.500;11.400;2024-02-15T05:17:35;4.43;;;2.40;;
14306;SDS011;7237;49.500;11.400;2024-02-15T05:20:04;2.87;;;2.60;;
14306;SDS011;7237;49.500;11.400;2024-02-15T05:22:35;9.53;;;3.70;;
14306;SDS011;7237;49.500;11.400;2024-02-15T05:25:04;6.00;;;3.20;;
14306;SDS011;7237;49.500;11.400;2024-02-15T05:27:31;6.80;;;3.20;;
14306;SDS011;7237;49.500;11.400;2024-02-15T05:29:58;6.80;;;3.20;;
14306;SDS011;7237;49.500;11.400;2024-02-15T05:32:25;18.10;;;4.20;;
14306;SDS011;7237;49.500;11.400;2024-02-15T05:34:53;5.07;;;3.27;;
14306;SDS011;7237;49.500;11.400;2024-02-15T05:37:22;4.60;;;3.73;;
14306;SDS011;7237;49.500;11.400;2024-02-15T05:39:49;3.53;;;3.23;;
14306;SDS011;7237;49.500;11.400;2024-02-15T05:42:18;6.40;;;3.70;;
14306;SDS011;7237;49.500;11.400;2024-02-15T05:44:45;3.67;;;3.37;;
14306;SDS011;7237;49.500;11.400;2024-02-15T05:47:12;4.47;;;3.87;;
14306;SDS011;7237;49.500;11.400;2024-02-15T05:49:39;6.50;;;3.70;;
14306;SDS011;7237;49.500;11.400;2024-02-15T05:52:06;5.30;;;3.83;;
14306;SDS011;7237;49.500;11.400;2024-02-15T05:54:35;5.23;;;3.80;;
14306;SDS011;7237;49.500;11.400;2024-02-15T05:57:02;3.80;;;3.50;;
14306;SDS011;7237;49.500;11.400;2024-02-15T05:59:29;3.93;;;3.43;;
14306;SDS011;7237;49.500;11.400;2024-02-15T06:01:56;4.27;;;3.20;;
14306;SDS011;7237;49.500;11.400;2024-02-15T06:04:23;4.30;;;2.87;;
14306;SDS011;7237;49.500;11.400;2024-02-15T06:06:51;4.00;;;3.00;;
14306;SDS011;7237;49.500;11.400;2024-02-15T06:09:23;3.63;;;3.33;;
14306;SDS011;7237;49.500;11.400;2024-02-15T06:11:54;4.03;;;3.40;;
14306;SDS011;7237;49.500;11.400;2024-02-15T06:14:22;6.40;;;3.47;;
14306;SDS011;7237;49.500;11.400;2024-02-15T06:16:49;4.27;;;3.20;;
14306;SDS011;7237;49.500;11.400;2024-02-15T06:19:20;5.33;;;3.30;;
14306;SDS011;7237;49.500;11.400;2024-02-15T06:21:47;3.53;;;3.07;;
14306;SDS011;7237;49.500;11.400;2024-02-15T06:24:15;3.40;;;2.70;;
14306;SDS011;7237;49.500;11.400;2024-02-15T06:26:42;4.03;;;3.63;;
14306;SDS011;7237;49.500;11.400;2024-02-15T06:29:11;3.77;;;3.33;;
14306;SDS011;7237;49.500;11.400;2024-02-15T06:31:55;3.50;;;3.20;;
14306;SDS011;7237;49.500;11.400;2024-02-15T06:34:42;6.73;;;3.27;;
14306;SDS011;7237;49.500;11.400;2024-02-15T06:37:34;6.40;;;3.07;;
14306;SDS011;7237;49.500;11.400;2024-02-15T06:40:19;2.90;;;2.70;;
14306;SDS011;7237;49.500;11.400;2024-02-15T06:42:47;4.07;;;3.20;;
14306;SDS011;7237;49.500;11.400;2024-02-15T06:45:15;6.50;;;4.50;;
14306;SDS011;7237;49.500;11.400;2024-02-15T06:47:43;3.87;;;3.47;;
14306;SDS011;7237;49.500;11.400;2024-02-15T06:50:10;4.83;;;4.17;;
14306;SDS011;7237;49.500;11.400;2024-02-15T06:52:38;6.17;;;3.73;;
14306;SDS011;7237;49.500;11.400;2024-02-15T06:55:06;7.13;;;3.53;;
14306;SDS011;7237;49.500;11.400;2024-02-15T06:57:33;4.10;;;3.57;;
14306;SDS011;7237;49.500;11.400;2024-02-15T07:00:01;7.13;;;4.13;;
14306;SDS011;7237;49.500;11.400;2024-02-15T07:02:31;4.07;;;3.67;;
14306;SDS011;7237;49.500;11.400;2024-02-15T07:04:58;11.90;;;5.20;;
14306;SDS011;7237;49.500;11.400;2024-02-15T07:07:25;9.97;;;5.00;;
14306;SDS011;7237;49.500;11.400;2024-02-15T07:09:52;5.30;;;4.10;;
14306;SDS011;7237;49.500;11.400;2024-02-15T07:12:19;7.47;;;4.60;;
14306;SDS011;7237;49.500;11.400;2024-02-15T07:14:46;4.43;;;4.03;;
14306;SDS011;7237;49.500;11.400;2024-02-15T07:17:13;6.50;;;4.10;;
14306;SDS011;7237;49.500;11.400;2024-02-15T07:19:42;4.27;;;3.87;;
14306;SDS011;7237;49.500;11.400;2024-02-15T07:22:09;5.10;;;4.60;;
14306;SDS011;7237;49.500;11.400;2024-02-15T07:24:37;5.30;;;3.87;;
14306;SDS011;7237;49.500;11.400;2024-02-15T07:27:04;5.20;;;4.43;;
14306;SDS011;7237;49.500;11.400;2024-02-15T07:29:31;8.17;;;4.87;;
14306;SDS011;7237;49.500;11.400;2024-02-15T07:31:58;7.57;;;4.23;;
14306;SDS011;7237;49.500;11.400;2024-02-15T07:34:29;4.73;;;3.97;;
14306;SDS011;7237;49.500;11.400;2024-02-15T07:36:57;8.47;;;4.17;;
14306;SDS011;7237;49.500;11.400;2024-02-15T07:39:24;8.30;;;4.50;;
14306;SDS011;7237;49.500;11.400;2024-02-15T07:41:53;9.90;;;4.50;;
14306;SDS011;7237;49.500;11.400;2024-02-15T07:44:21;6.53;;;4.30;;
14306;SDS011;7237;49.500;11.400;2024-02-15T07:46:48;7.63;;;4.60;;
14306;SDS011;7237;49.500;11.400;2024-02-15T07:49:15;8.17;;;4.10;;
14306;SDS011;7237;49.500;11.400;2024-02-15T07:51:43;4.40;;;4.00;;
14306;SDS011;7237;49.500;11.400;2024-02-15T07:54:12;6.83;;;4.30;;
14306;SDS011;7237;49.500;11.400;2024-02-15T07:56:39;6.53;;;4.50;;
14306;SDS011;7237;49.500;11.400;2024-02-15T07:59:06;5.43;;;4.30;;
14306;SDS011;7237;49.500;11.400;2024-02-15T08:01:33;5.03;;;4.20;;
14306;SDS011;7237;49.500;11.400;2024-02-15T08:04:00;5.07;;;4.43;;
14306;SDS011;7237;49.500;11.400;2024-02-15T08:06:27;7.40;;;4.78;;
14306;SDS011;7237;49.500;11.400;2024-02-15T08:08:57;6.90;;;4.30;;
14306;SDS011;7237;49.500;11.400;2024-02-15T08:11:25;9.63;;;4.60;;
14306;SDS011;7237;49.500;11.400;2024-02-15T08:13:52;5.83;;;4.67;;
14306;SDS011;7237;49.500;11.400;2024-02-15T08:16:22;4.80;;;3.67;;
14306;SDS011;7237;49.500;11.400;2024-02-15T08:18:49;6.03;;;4.23;;
14306;SDS011;7237;49.500;11.400;2024-02-15T08:21:18;6.87;;;4.00;;
14306;SDS011;7237;49.500;11.400;2024-02-15T08:23:46;6.47;;;3.60;;
14306;SDS011;7237;49.500;11.400;2024-02-15T08:26:13;7.03;;;3.30;;
14306;SDS011;7237;49.500;11.400;2024-02-15T08:28:43;6.63;;;4.23;;
14306;SDS011;7237;49.500;11.400;2024-02-15T08:31:10;5.63;;;3.43;;
14306;SDS011;7237;49.500;11.400;2024-02-15T08:33:40;6.63;;;3.87;;
14306;SDS011;7237;49.500;11.400;2024-02-15T08:36:08;5.90;;;3.43;;
14306;SDS011;7237;49.500;11.400;2024-02-15T08:38:36;7.27;;;4.10;;
14306;SDS011;7237;49.500;11.400;2024-02-15T08:41:03;4.87;;;3.70;;
14306;SDS011;7237;49.500;11.400;2024-02-15T08:43:32;4.13;;;3.50;;
14306;SDS011;7237;49.500;11.400;2024-02-15T08:46:00;3.90;;;3.30;;
14306;SDS011;7237;49.500;11.400;2024-02-15T08:48:27;5.33;;;3.40;;
14306;SDS011;7237;49.500;11.400;2024-02-15T08:50:55;5.27;;;3.43;;
14306;SDS011;7237;49.500;11.400;2024-02-15T08:53:22;5.50;;;3.40;;
14306;SDS011;7237;49.500;11.400;2024-02-15T08:55:49;3.70;;;3.00;;
14306;SDS011;7237;49.500;11.400;2024-02-15T08:58:18;4.13;;;2.90;;
14306;SDS011;7237;49.500;11.400;2024-02-15T09:00:46;6.87;;;3.57;;
14306;SDS011;7237;49.500;11.400;2024-02-15T09:03:14;4.30;;;3.27;;
14306;SDS011;7237;49.500;11.400;2024-02-15T09:05:43;4.90;;;3.53;;
14306;SDS011;7237;49.500;11.400;2024-02-15T09:08:10;7.00;;;3.80;;
14306;SDS011;7237;49.500;11.400;2024-02-15T09:10:37;5.43;;;3.50;;
14306;SDS011;7237;49.500;11.400;2024-02-15T09:13:05;3.80;;;3.33;;
14306;SDS011;7237;49.500;11.400;2024-02-15T09:15:32;5.73;;;3.60;;
14306;SDS011;7237;49.500;11.400;2024-02-15T09:17:59;5.17;;;3.67;;
14306;SDS011;7237;49.500;11.400;2024-02-15T09:20:27;7.27;;;4.13;;
14306;SDS011;7237;49.500;11.400;2024-02-15T09:22:56;6.70;;;4.13;;
14306;SDS011;7237;49.500;11.400;2024-02-15T09:25:24;5.33;;;4.10;;
14306;SDS011;7237;49.500;11.400;2024-02-15T09:27:51;6.30;;;3.50;;
14306;SDS011;7237;49.500;11.400;2024-02-15T09:30:19;4.20;;;3.80;;
14306;SDS011;7237;49.500;11.400;2024-02-15T09:32:49;5.10;;;3.77;;
14306;SDS011;7237;49.500;11.400;2024-02-15T09:35:17;3.60;;;3.30;;
14306;SDS011;7237;49.500;11.400;2024-02-15T09:37:46;5.93;;;3.63;;
14306;SDS011;7237;49.500;11.400;2024-02-15T09:40:14;3.93;;;3.47;;
14306;SDS011;7237;49.500;11.400;2024-02-15T09:42:42;4.37;;;3.33;;
14306;SDS011;7237;49.500;11.400;2024-02-15T09:45:10;3.93;;;3.50;;
14306;SDS011;7237;49.500;11.400;2024-02-15T09:47:39;4.53;;;3.57;;
14306;SDS011;7237;49.500;11.400;2024-02-15T09:50:06;4.00;;;3.27;;
14306;SDS011;7237;49.500;11.400;2024-02-15T09:52:36;3.60;;;3.30;;
14306;SDS011;7237;49.500;11.400;2024-02-15T09:55:05;4.03;;;3.07;;
14306;SDS011;7237;49.500;11.400;2024-02-15T09:57:35;3.73;;;3.10;;
14306;SDS011;7237;49.500;11.400;2024-02-15T10:00:03;5.20;;;3.57;;
14306;SDS011;7237;49.500;11.400;2024-02-15T10:02:32;5.13;;;3.27;;
14306;SDS011;7237;49.500;11.400;2024-02-15T10:05:00;3.33;;;3.00;;
14306;SDS011;7237;49.500;11.400;2024-02-15T10:07:28;3.50;;;3.20;;
14306;SDS011;7237;49.500;11.400;2024-02-15T10:09:55;6.63;;;3.53;;
14306;SDS011;7237;49.500;11.400;2024-02-15T10:12:23;6.17;;;3.47;;
14306;SDS011;7237;49.500;11.400;2024-02-15T10:15:03;4.00;;;3.10;;
14306;SDS011;7237;49.500;11.400;2024-02-15T10:17:32;5.37;;;3.53;;
14306;SDS011;7237;49.500;11.400;2024-02-15T10:20:05;3.87;;;3.27;;
14306;SDS011;7237;49.500;11.400;2024-02-15T10:22:32;3.60;;;3.30;;
14306;SDS011;7237;49.500;11.400;2024-02-15T10:25:10;4.88;;;2.75;;
14306;SDS011;7237;49.500;11.400;2024-02-15T10:27:38;4.90;;;3.33;;
14306;SDS011;7237;49.500;11.400;2024-02-15T10:30:14;3.80;;;3.17;;
14306;SDS011;7237;49.500;11.400;2024-02-15T10:32:41;3.63;;;2.90;;
14306;SDS011;7237;49.500;11.400;2024-02-15T10:35:08;3.25;;;2.90;;
14306;SDS011;7237;49.500;11.400;2024-02-15T10:37:35;7.57;;;2.97;;
14306;SDS011;7237;49.500;11.400;2024-02-15T10:40:05;3.50;;;2.95;;
14306;SDS011;7237;49.500;11.400;2024-02-15T10:42:33;3.40;;;2.90;;
14306;SDS011;7237;49.500;11.400;2024-02-15T10:45:03;3.30;;;2.97;;
14306;SDS011;7237;49.500;11.400;2024-02-15T10:47:30;3.92;;;3.00;;
14306;SDS011;7237;49.500;11.400;2024-02-15T10:49:57;3.65;;;2.13;;
14306;SDS011;7237;49.500;11.400;2024-02-15T10:52:25;3.42;;;3.05;;
14306;SDS011;7237;49.500;11.400;2024-02-15T10:54:56;4.45;;;2.70;;
14306;SDS011;7237;49.500;11.400;2024-02-15T10:57:25;5.15;;;3.10;;
14306;SDS011;7237;49.500;11.400;2024-02-15T10:59:54;5.65;;;2.72;;
14306;SDS011;7237;49.500;11.400;2024-02-15T11:02:28;2.88;;;2.42;;
14306;SDS011;7237;49.500;11.400;2024-02-15T11:04:55;3.22;;;2.58;;
14306;SDS011;7237;49.500;11.400;2024-02-15T11:07:28;2.80;;;2.50;;
14306;SDS011;7237;49.500;11.400;2024-02-15T11:09:55;2.97;;;2.50;;
14306;SDS011;7237;49.500;11.400;2024-02-15T11:12:22;3.42;;;2.42;;
14306;SDS011;7237;49.500;11.400;2024-02-15T11:14:50;5.68;;;2.83;;
14306;SDS011;7237;49.500;11.400;2024-02-15T11:20:06;3.28;;;2.58;;
14306;SDS011;7237;49.500;11.400;2024-02-15T11:22:35;5.22;;;2.42;;
14306;SDS011;7237;49.500;11.400;2024-02-15T11:25:02;3.97;;;2.40;;
14306;SDS011;7237;49.500;11.400;2024-02-15T11:27:33;6.00;;;2.35;;
14306;SDS011;7237;49.500;11.400;2024-02-15T11:30:02;2.63;;;2.22;;
14306;SDS011;7237;49.500;11.400;2024-02-15T11:32:34;6.57;;;2.45;;
14306;SDS011;7237;49.500;11.400;2024-02-15T11:35:04;3.80;;;2.05;;
14306;SDS011;7237;49.500;11.400;2024-02-15T11:37:53;4.32;;;2.28;;
14306;SDS011;7237;49.500;11.400;2024-02-15T11:40:23;3.28;;;2.00;;
14306;SDS011;7237;49.500;11.400;2024-02-15T11:42:52;4.60;;;2.30;;
14306;SDS011;7237;49.500;11.400;2024-02-15T11:45:20;3.17;;;2.10;;
14306;SDS011;7237;49.500;11.400;2024-02-15T11:47:47;6.50;;;2.30;;
14306;SDS011;7237;49.500;11.400;2024-02-15T11:50:15;3.65;;;2.00;;
14306;SDS011;7237;49.500;11.400;2024-02-15T11:52:42;3.67;;;2.08;;
14306;SDS011;7237;49.500;11.400;2024-02-15T11:55:12;2.85;;;2.20;;
14306;SDS011;7237;49.500;11.400;2024-02-15T11:57:39;2.75;;;1.95;;
14306;SDS011;7237;49.500;11.400;2024-02-15T12:00:22;2.92;;;2.15;;
14306;SDS011;7237;49.500;11.400;2024-02-15T12:03:06;2.75;;;1.77;;
14306;SDS011;7237;49.500;11.400;2024-02-15T12:05:48;2.80;;;1.63;;
14306;SDS011;7237;49.500;11.400;2024-02-15T12:08:33;2.80;;;1.52;;
14306;SDS011;7237;49.500;11.400;2024-02-15T12:11:19;1.98;;;1.50;;
14306;SDS011;7237;49.500;11.400;2024-02-15T12:14:04;4.68;;;1.98;;
14306;SDS011;7237;49.500;11.400;2024-02-15T12:16:58;1.45;;;1.35;;
14306;SDS011;7237;49.500;11.400;2024-02-15T12:19:43;1.88;;;1.20;;
14306;SDS011;7237;49.500;11.400;2024-02-15T12:22:10;1.77;;;1.30;;
14306;SDS011;7237;49.500;11.400;2024-02-15T12:24:37;1.98;;;1.50;;
14306;SDS011;7237;49.500;11.400;2024-02-15T12:27:05;2.42;;;1.20;;
14306;SDS011;7237;49.500;11.400;2024-02-15T12:29:32;3.03;;;1.50;;
14306;SDS011;7237;49.500;11.400;2024-02-15T12:32:00;2.60;;;1.23;;
14306;SDS011;7237;49.500;11.400;2024-02-15T12:34:28;2.92;;;1.25;;
14306;SDS011;7237;49.500;11.400;2024-02-15T12:37:04;1.15;;;0.98;;
14306;SDS011;7237;49.500;11.400;2024-02-15T12:39:32;3.00;;;1.42;;
14306;SDS011;7237;49.500;11.400;2024-02-15T12:41:59;3.17;;;1.23;;
14306;SDS011;7237;49.500;11.400;2024-02-15T12:44:28;3.70;;;1.30;;
14306;SDS011;7237;49.500;11.400;2024-02-15T12:46:57;1.23;;;0.98;;
14306;SDS011;7237;49.500;11.400;2024-02-15T12:49:28;3.20;;;1.48;;
14306;SDS011;7237;49.500;11.400;2024-02-15T12:54:38;1.77;;;1.13;;
14306;SDS011;7237;49.500;11.400;2024-02-15T12:57:07;2.05;;;1.27;;
14306;SDS011;7237;49.500;11.400;2024-02-15T12:59:36;1.63;;;1.20;;
14306;SDS011;7237;49.500;11.400;2024-02-15T13:02:03;1.92;;;1.30;;
14306;SDS011;7237;49.500;11.400;2024-02-15T13:04:30;1.63;;;1.00;;
14306;SDS011;7237;49.500;11.400;2024-02-15T13:06:57;2.03;;;1.23;;
14306;SDS011;7237;49.500;11.400;2024-02-15T13:09:24;1.85;;;1.30;;
14306;SDS011;7237;49.500;11.400;2024-02-15T13:11:51;5.82;;;1.63;;
14306;SDS011;7237;49.500;11.400;2024-02-15T13:14:18;2.25;;;1.20;;
14306;SDS011;7237;49.500;11.400;2024-02-15T13:16:47;2.50;;;1.30;;
14306;SDS011;7237;49.500;11.400;2024-02-15T13:19:14;2.70;;;1.58;;
14306;SDS011;7237;49.500;11.400;2024-02-15T13:21:41;2.60;;;1.65;;
14306;SDS011;7237;49.500;11.400;2024-02-15T13:24:09;3.28;;;1.63;;
14306;SDS011;7237;49.500;11.400;2024-02-15T13:26:36;2.97;;;1.15;;
14306;SDS011;7237;49.500;11.400;2024-02-15T13:29:05;3.42;;;1.30;;
14306;SDS011;7237;49.500;11.400;2024-02-15T13:31:32;2.15;;;1.25;;
14306;SDS011;7237;49.500;11.400;2024-02-15T13:34:01;2.95;;;1.45;;
14306;SDS011;7237;49.500;11.400;2024-02-15T13:36:28;2.13;;;1.10;;
14306;SDS011;7237;49.500;11.400;2024-02-15T13:38:55;1.27;;;1.17;;
14306;SDS011;7237;49.500;11.400;2024-02-15T13:41:22;3.50;;;1.40;;
14306;SDS011;7237;49.500;11.400;2024-02-15T13:43:49;4.35;;;1.40;;
14306;SDS011;7237;49.500;11.400;2024-02-15T13:46:16;4.68;;;1.35;;
14306;SDS011;7237;49.500;11.400;2024-02-15T13:48:45;5.72;;;1.60;;
14306;SDS011;7237;49.500;11.400;2024-02-15T13:51:13;9.48;;;2.00;;
14306;SDS011;7237;49.500;11.400;2024-02-15T13:53:40;3.40;;;1.40;;
14306;SDS011;7237;49.500;11.400;2024-02-15T13:56:08;4.35;;;1.40;;
14306;SDS011;7237;49.500;11.400;2024-02-15T13:58:35;3.85;;;1.20;;
14306;SDS011;7237;49.500;11.400;2024-02-15T14:01:02;1.83;;;1.25;;
14306;SDS011;7237;49.500;11.400;2024-02-15T14:03:29;2.00;;;1.08;;
14306;SDS011;7237;49.500;11.400;2024-02-15T14:05:58;4.40;;;1.50;;
14306;SDS011;7237;49.500;11.400;2024-02-15T14:08:26;1.85;;;1.08;;
14306;SDS011;7237;49.500;11.400;2024-02-15T14:10:53;4.60;;;1.48;;
14306;SDS011;7237;49.500;11.400;2024-02-15T14:13:20;2.60;;;1.30;;
14306;SDS011;7237;49.500;11.400;2024-02-15T14:15:48;4.80;;;1.33;;
14306;SDS011;7237;49.500;11.400;2024-02-15T14:18:16;2.15;;;1.30;;
14306;SDS011;7237;49.500;11.400;2024-02-15T14:20:43;2.70;;;1.35;;
14306;SDS011;7237;49.500;11.400;2024-02-15T14:23:12;3.25;;;1.30;;
14306;SDS011;7237;49.500;11.400;2024-02-15T14:25:41;2.25;;;1.40;;
14306;SDS011;7237;49.500;11.400;2024-02-15T14:28:09;2.97;;;1.48;;
14306;SDS011;7237;49.500;11.400;2024-02-15T14:30:36;2.08;;;1.10;;
14306;SDS011;7237;49.500;11.400;2024-02-15T14:33:21;3.47;;;1.33;;
14306;SDS011;7237;49.500;11.400;2024-02-15T14:35:49;4.72;;;1.27;;
14306;SDS011;7237;49.500;11.400;2024-02-15T14:38:18;2.55;;;1.33;;
14306;SDS011;7237;49.500;11.400;2024-02-15T14:40:47;2.63;;;1.40;;
14306;SDS011;7237;49.500;11.400;2024-02-15T14:43:17;3.00;;;1.40;;
14306;SDS011;7237;49.500;11.400;2024-02-15T14:45:46;4.30;;;1.70;;
14306;SDS011;7237;49.500;11.400;2024-02-15T14:48:13;3.85;;;1.52;;
14306;SDS011;7237;49.500;11.400;2024-02-15T14:50:42;2.83;;;1.20;;
14306;SDS011;7237;49.500;11.400;2024-02-15T14:53:10;4.13;;;1.52;;
14306;SDS011;7237;49.500;11.400;2024-02-15T14:55:38;2.70;;;1.30;;
14306;SDS011;7237;49.500;11.400;2024-02-15T14:58:07;1.50;;;1.25;;
14306;SDS011;7237;49.500;11.400;2024-02-15T15:00:34;2.80;;;1.30;;
14306;SDS011;7237;49.500;11.400;2024-02-15T15:03:02;2.45;;;1.50;;
14306;SDS011;7237;49.500;11.400;2024-02-15T15:05:30;3.85;;;1.40;;